Time;durP1;ratioP1;P1;durP2;ratioP2;P2;SDS_P1;SDS_P2;PMS_P1;PMS_P2;Temp;Humidity;BMP_temperature;BMP_pressure;BME280_temperature;BME280_humidity;BME280_pressure;Samples;Min_cycle;Max_cycle;Signal;HPM_P1;HPM_P2
2023/07/05 00:02:13;;;;;;;6.35;2.08;;;;;;;;;;5053015;28;20032;-68
2023/07/05 00:04:39;;;;;;;28.65;2.63;;;;;;;;;;5051961;28;20044;-68
2023/07/05 00:07:04;;;;;;;14.80;2.45;;;;;;;;;;5052746;28;20033;-69
2023/07/05 00:09:29;;;;;;;8.70;2.00;;;;;;;;;;5051106;28;20116;-70
2023/07/05 00:11:56;;;;;;;4.63;2.08;;;;;;;;;;5050732;28;20068;-70
2023/07/05 00:14:22;;;;;;;7.43;1.98;;;;;;;;;;5048595;28;20033;-69
2023/07/05 00:16:47;;;;;;;7.93;2.10;;;;;;;;;;5051893;28;20464;-69
2023/07/05 00:19:13;;;;;;;8.25;2.10;;;;;;;;;;5052627;28;20052;-69
2023/07/05 00:21:38;;;;;;;6.38;2.08;;;;;;;;;;5051644;28;20040;-70
2023/07/05 00:24:04;;;;;;;4.53;1.70;;;;;;;;;;5052935;28;20087;-69
2023/07/05 00:26:29;;;;;;;3.63;1.73;;;;;;;;;;5052905;28;20041;-69
2023/07/05 00:28:55;;;;;;;6.53;1.95;;;;;;;;;;5051742;28;20045;-69
2023/07/05 00:31:20;;;;;;;4.00;1.73;;;;;;;;;;5049554;28;20036;-69
2023/07/05 00:33:45;;;;;;;5.65;1.70;;;;;;;;;;5042911;28;20034;-70
2023/07/05 00:36:11;;;;;;;9.63;2.25;;;;;;;;;;5052497;28;20124;-69
2023/07/05 00:38:36;;;;;;;5.68;1.77;;;;;;;;;;5052753;28;20396;-69
2023/07/05 00:41:02;;;;;;;8.40;2.03;;;;;;;;;;5050547;28;20120;-69
2023/07/05 00:43:27;;;;;;;4.03;1.88;;;;;;;;;;5052591;28;20040;-69
2023/07/05 00:45:54;;;;;;;26.73;2.72;;;;;;;;;;5050616;28;20041;-70
2023/07/05 00:48:38;;;;;;;74.88;4.07;;;;;;;;;;5052359;28;20037;-68
2023/07/05 00:51:19;;;;;;;55.03;3.65;;;;;;;;;;5040938;28;20044;-68
2023/07/05 00:53:45;;;;;;;19.50;2.33;;;;;;;;;;5051312;28;20166;-70
2023/07/05 00:56:29;;;;;;;5.32;2.15;;;;;;;;;;5052798;28;20142;-69
2023/07/05 00:58:55;;;;;;;4.50;1.83;;;;;;;;;;5050190;28;20045;-70
2023/07/05 01:01:20;;;;;;;6.25;1.92;;;;;;;;;;5051253;28;20045;-70
2023/07/05 01:03:49;;;;;;;49.55;3.80;;;;;;;;;;5050487;28;20477;-69
2023/07/05 01:06:16;;;;;;;76.63;4.15;;;;;;;;;;5051517;28;20082;-69
2023/07/05 01:08:42;;;;;;;184.60;6.55;;;;;;;;;;5045198;28;20037;-69
2023/07/05 01:11:13;;;;;;;138.70;5.32;;;;;;;;;;5052017;28;20033;-69
2023/07/05 01:13:42;;;;;;;50.22;2.95;;;;;;;;;;5052507;28;20047;-69
2023/07/05 01:16:19;;;;;;;8.00;2.20;;;;;;;;;;5050725;28;20550;-69
2023/07/05 01:19:07;;;;;;;9.13;1.80;;;;;;;;;;5054356;28;20041;-69
2023/07/05 01:21:43;;;;;;;32.05;2.67;;;;;;;;;;5048007;28;20037;-68
2023/07/05 01:24:08;;;;;;;16.08;2.00;;;;;;;;;;5051681;28;20522;-69
2023/07/05 01:26:58;;;;;;;7.15;1.92;;;;;;;;;;5051170;28;20041;-69
2023/07/05 01:29:45;;;;;;;7.93;1.88;;;;;;;;;;5054868;28;20119;-69
2023/07/05 01:32:20;;;;;;;19.77;1.60;;;;;;;;;;5054415;28;20120;-68
2023/07/05 01:34:59;;;;;;;5.60;1.80;;;;;;;;;;5054234;28;20032;-70
2023/07/05 01:37:33;;;;;;;16.15;1.92;;;;;;;;;;5054168;28;20040;-69
2023/07/05 01:39:58;;;;;;;;;;;;;;;;;;5049205;28;20049;-70
2023/07/05 01:42:28;;;;;;;3.92;1.60;;;;;;;;;;5055432;28;20418;-69
2023/07/05 01:44:53;;;;;;;8.23;1.83;;;;;;;;;;5048202;28;20033;-69
2023/07/05 01:47:29;;;;;;;5.60;1.77;;;;;;;;;;5055397;28;20045;-69
2023/07/05 01:50:12;;;;;;;4.75;1.50;;;;;;;;;;5050774;28;20549;-69
2023/07/05 01:53:01;;;;;;;5.43;1.52;;;;;;;;;;5051849;28;20230;-70
2023/07/05 01:55:41;;;;;;;6.00;1.70;;;;;;;;;;5047790;28;20056;-68
2023/07/05 01:58:11;;;;;;;12.10;1.80;;;;;;;;;;5053800;28;20064;-68
2023/07/05 02:00:38;;;;;;;6.13;1.67;;;;;;;;;;5054837;28;20049;-69
2023/07/05 02:03:08;;;;;;;4.30;1.42;;;;;;;;;;5053674;28;20058;-69
2023/07/05 02:05:34;;;;;;;6.28;1.75;;;;;;;;;;5055353;28;20037;-69
2023/07/05 02:07:59;;;;;;;3.80;1.60;;;;;;;;;;5054835;28;20033;-69
2023/07/05 02:10:26;;;;;;;100.40;4.68;;;;;;;;;;5053458;28;20108;-68
2023/07/05 02:12:52;;;;;;;4.93;1.75;;;;;;;;;;5054532;28;20091;-69
2023/07/05 02:15:18;;;;;;;5.45;1.50;;;;;;;;;;5053782;28;20025;-70
2023/07/05 02:17:44;;;;;;;8.40;1.63;;;;;;;;;;5054703;28;20037;-70
2023/07/05 02:20:09;;;;;;;4.40;1.67;;;;;;;;;;5054923;28;20033;-70
2023/07/05 02:22:35;;;;;;;5.00;1.58;;;;;;;;;;5054644;28;20473;-69
2023/07/05 02:25:00;;;;;;;8.00;1.67;;;;;;;;;;5055205;28;20033;-69
2023/07/05 02:27:27;;;;;;;18.23;2.10;;;;;;;;;;5054278;28;20047;-68
2023/07/05 02:29:52;;;;;;;5.85;1.70;;;;;;;;;;5052854;28;20036;-69
2023/07/05 02:32:18;;;;;;;3.28;1.60;;;;;;;;;;5054642;28;20048;-69
2023/07/05 02:34:43;;;;;;;4.07;1.58;;;;;;;;;;5050221;28;20041;-68
2023/07/05 02:37:10;;;;;;;6.25;1.70;;;;;;;;;;5053291;28;20400;-69
2023/07/05 02:39:35;;;;;;;8.95;1.90;;;;;;;;;;5050756;28;20042;-69
2023/07/05 02:42:01;;;;;;;12.48;1.88;;;;;;;;;;5051833;28;20040;-69
2023/07/05 02:44:27;;;;;;;16.35;1.83;;;;;;;;;;5054140;28;20027;-68
2023/07/05 02:46:52;;;;;;;89.53;4.85;;;;;;;;;;5054506;28;20112;-69
2023/07/05 02:49:17;;;;;;;6.00;1.60;;;;;;;;;;5053888;28;20108;-69
2023/07/05 02:51:43;;;;;;;5.22;1.90;;;;;;;;;;5054613;28;20489;-69
2023/07/05 02:54:08;;;;;;;4.93;1.48;;;;;;;;;;5054090;28;20047;-69
2023/07/05 02:56:34;;;;;;;7.75;1.67;;;;;;;;;;5053564;28;20043;-69
2023/07/05 02:58:59;;;;;;;4.57;1.70;;;;;;;;;;5053265;28;20044;-69
2023/07/05 03:01:25;;;;;;;8.32;1.90;;;;;;;;;;5054344;28;20568;-69
2023/07/05 03:03:50;;;;;;;6.63;1.60;;;;;;;;;;5053242;28;20044;-69
2023/07/05 03:06:15;;;;;;;5.97;2.03;;;;;;;;;;5053817;28;20025;-69
2023/07/05 03:08:41;;;;;;;4.30;1.83;;;;;;;;;;5049486;28;20069;-68
2023/07/05 03:11:06;;;;;;;9.68;2.20;;;;;;;;;;5050176;28;20120;-69
2023/07/05 03:13:33;;;;;;;21.92;2.63;;;;;;;;;;5053518;28;20118;-68
2023/07/05 03:15:59;;;;;;;94.85;3.75;;;;;;;;;;5053998;28;20036;-68
2023/07/05 03:18:25;;;;;;;22.98;2.60;;;;;;;;;;5053536;28;20047;-68
2023/07/05 03:20:50;;;;;;;9.52;2.03;;;;;;;;;;5053470;28;20040;-69
2023/07/05 03:23:16;;;;;;;10.13;2.15;;;;;;;;;;5053389;28;20041;-70
2023/07/05 03:25:56;;;;;;;4.47;1.90;;;;;;;;;;5053793;28;20541;-68
2023/07/05 03:28:22;;;;;;;5.13;2.17;;;;;;;;;;5053634;28;20052;-69
2023/07/05 03:31:00;;;;;;;6.72;2.33;;;;;;;;;;5053681;28;20484;-68
2023/07/05 03:33:25;;;;;;;6.90;2.17;;;;;;;;;;5052778;28;20487;-69
2023/07/05 03:35:58;;;;;;;8.77;3.25;;;;;;;;;;5052209;28;20045;-68
2023/07/05 03:38:25;;;;;;;21.15;2.30;;;;;;;;;;5051455;28;20037;-69
2023/07/05 03:40:56;;;;;;;6.50;2.38;;;;;;;;;;5051791;28;20052;-69
2023/07/05 03:43:22;;;;;;;5.68;2.20;;;;;;;;;;5053126;28;20036;-68
2023/07/05 03:45:47;;;;;;;11.82;3.45;;;;;;;;;;5053884;28;20090;-68
2023/07/05 03:48:12;;;;;;;5.93;1.95;;;;;;;;;;5051261;28;20119;-68
2023/07/05 03:50:38;;;;;;;13.80;2.33;;;;;;;;;;5050531;28;20118;-68
2023/07/05 03:53:03;;;;;;;14.48;2.22;;;;;;;;;;5052962;28;20033;-68
2023/07/05 03:55:28;;;;;;;4.93;1.95;;;;;;;;;;5053330;28;20040;-69
2023/07/05 03:57:56;;;;;;;6.47;2.20;;;;;;;;;;5053060;28;20033;-68
2023/07/05 04:00:21;;;;;;;11.65;2.30;;;;;;;;;;5052773;28;20048;-69
2023/07/05 04:02:46;;;;;;;9.70;2.47;;;;;;;;;;5052732;28;20049;-69
2023/07/05 04:05:12;;;;;;;5.13;1.88;;;;;;;;;;5053189;28;20047;-68
2023/07/05 04:07:37;;;;;;;3.95;1.88;;;;;;;;;;5052572;28;20133;-68
2023/07/05 04:10:03;;;;;;;8.07;2.00;;;;;;;;;;5053044;28;20052;-68
2023/07/05 04:12:28;;;;;;;6.47;1.90;;;;;;;;;;5052790;28;20036;-69
2023/07/05 04:14:54;;;;;;;5.55;2.15;;;;;;;;;;5052856;28;20049;-68
2023/07/05 04:17:19;;;;;;;7.22;2.33;;;;;;;;;;5052848;28;20037;-68
2023/07/05 04:19:44;;;;;;;7.30;2.30;;;;;;;;;;5052781;28;20037;-69
2023/07/05 04:22:10;;;;;;;6.82;2.08;;;;;;;;;;5052443;28;20079;-69
2023/07/05 04:24:36;;;;;;;5.80;1.98;;;;;;;;;;5052677;28;20056;-68
2023/07/05 04:27:02;;;;;;;6.85;2.15;;;;;;;;;;5052802;28;20473;-69
2023/07/05 04:29:28;;;;;;;7.45;2.30;;;;;;;;;;5052632;28;20377;-68
2023/07/05 04:31:53;;;;;;;6.60;2.10;;;;;;;;;;5052563;28;20037;-68
2023/07/05 04:34:18;;;;;;;9.95;2.60;;;;;;;;;;5052306;28;20055;-69
2023/07/05 04:36:44;;;;;;;5.45;2.05;;;;;;;;;;5052337;28;20033;-68
2023/07/05 04:39:09;;;;;;;5.50;2.05;;;;;;;;;;5052650;28;20029;-68
2023/07/05 04:41:34;;;;;;;9.02;2.15;;;;;;;;;;5052733;28;20416;-68
2023/07/05 04:44:00;;;;;;;11.95;2.40;;;;;;;;;;5052221;28;20464;-68
2023/07/05 04:46:25;;;;;;;5.68;2.13;;;;;;;;;;5042594;28;20457;-68
2023/07/05 04:48:50;;;;;;;4.75;2.13;;;;;;;;;;5052043;28;20121;-69
2023/07/05 04:51:16;;;;;;;7.53;2.40;;;;;;;;;;5053559;28;20032;-69
2023/07/05 04:53:41;;;;;;;10.02;2.65;;;;;;;;;;5055195;28;20069;-68
2023/07/05 04:56:10;;;;;;;10.25;2.13;;;;;;;;;;5056714;28;20072;-69
2023/07/05 04:58:36;;;;;;;7.85;2.40;;;;;;;;;;5054964;28;20033;-68
2023/07/05 05:01:02;;;;;;;4.95;2.40;;;;;;;;;;5056436;28;20103;-69
2023/07/05 05:03:29;;;;;;;5.65;2.22;;;;;;;;;;5054696;28;20041;-69
2023/07/05 05:05:54;;;;;;;5.57;2.30;;;;;;;;;;5056196;28;20464;-68
2023/07/05 05:08:21;;;;;;;7.50;2.05;;;;;;;;;;5053024;28;20075;-68
2023/07/05 05:10:58;;;;;;;9.52;2.00;;;;;;;;;;5046865;28;20037;-69
2023/07/05 05:13:24;;;;;;;8.25;2.60;;;;;;;;;;5055642;28;20041;-69
2023/07/05 05:15:50;;;;;;;5.45;2.20;;;;;;;;;;5048633;28;20129;-68
2023/07/05 05:18:16;;;;;;;7.32;2.38;;;;;;;;;;5056041;28;20107;-68
2023/07/05 05:20:42;;;;;;;11.00;2.20;;;;;;;;;;5053082;28;20040;-68
2023/07/05 05:23:07;;;;;;;7.53;2.50;;;;;;;;;;5054862;28;20040;-68
2023/07/05 05:25:33;;;;;;;6.05;2.20;;;;;;;;;;5054940;28;20047;-68
2023/07/05 05:27:58;;;;;;;4.25;1.92;;;;;;;;;;5055808;28;20064;-69
2023/07/05 05:30:24;;;;;;;5.25;1.90;;;;;;;;;;5044636;28;20081;-68
2023/07/05 05:32:49;;;;;;;6.05;2.20;;;;;;;;;;5053439;28;20045;-68
2023/07/05 05:35:15;;;;;;;5.72;2.17;;;;;;;;;;5056187;28;20037;-69
2023/07/05 05:37:41;;;;;;;8.20;2.47;;;;;;;;;;5054110;28;20468;-68
2023/07/05 05:40:07;;;;;;;6.22;1.98;;;;;;;;;;5054509;28;20040;-69
2023/07/05 05:42:33;;;;;;;7.47;2.05;;;;;;;;;;5055282;28;20040;-69
2023/07/05 05:44:58;;;;;;;3.65;1.75;;;;;;;;;;5055709;28;20098;-68
2023/07/05 05:47:24;;;;;;;8.68;1.92;;;;;;;;;;5052937;28;20392;-69
2023/07/05 05:49:49;;;;;;;6.97;2.10;;;;;;;;;;5055162;28;20049;-69
2023/07/05 05:52:14;;;;;;;4.65;2.10;;;;;;;;;;5055242;28;20115;-69
2023/07/05 05:54:40;;;;;;;4.63;1.95;;;;;;;;;;5055312;28;20116;-68
2023/07/05 05:57:05;;;;;;;6.28;1.70;;;;;;;;;;5055785;28;20033;-68
2023/07/05 05:59:30;;;;;;;7.32;2.30;;;;;;;;;;5054676;28;20055;-68
2023/07/05 06:01:56;;;;;;;8.88;2.38;;;;;;;;;;5053492;28;20061;-69
2023/07/05 06:04:21;;;;;;;7.45;2.47;;;;;;;;;;5054637;28;20065;-69
2023/07/05 06:06:46;;;;;;;9.18;2.45;;;;;;;;;;5055183;28;20033;-69
2023/07/05 06:09:14;;;;;;;5.75;2.22;;;;;;;;;;5054530;28;20028;-69
2023/07/05 06:11:39;;;;;;;4.07;2.17;;;;;;;;;;5046469;28;20045;-68
2023/07/05 06:14:05;;;;;;;8.13;2.58;;;;;;;;;;5052613;28;20106;-68
2023/07/05 06:16:30;;;;;;;6.25;2.22;;;;;;;;;;5043932;28;20033;-68
2023/07/05 06:18:55;;;;;;;11.52;2.13;;;;;;;;;;5054075;28;20040;-69
2023/07/05 06:21:21;;;;;;;4.43;1.65;;;;;;;;;;5053753;28;20033;-68
2023/07/05 06:23:46;;;;;;;4.13;1.95;;;;;;;;;;5054801;28;20040;-69
2023/07/05 06:26:11;;;;;;;3.67;1.90;;;;;;;;;;5054676;28;20469;-69
2023/07/05 06:28:37;;;;;;;5.05;1.67;;;;;;;;;;5052916;28;20041;-68
2023/07/05 06:31:07;;;;;;;3.85;1.42;;;;;;;;;;5052508;28;20366;-69
2023/07/05 06:33:33;;;;;;;3.83;1.40;;;;;;;;;;5046799;28;20063;-69
2023/07/05 06:36:01;;;;;;;17.95;2.38;;;;;;;;;;5049088;28;20396;-69
2023/07/05 06:38:28;;;;;;;5.38;1.95;;;;;;;;;;5053564;28;20107;-69
2023/07/05 06:40:53;;;;;;;35.65;3.22;;;;;;;;;;5053587;28;20036;-69
2023/07/05 06:43:20;;;;;;;18.90;1.75;;;;;;;;;;5053735;28;20044;-68
2023/07/05 06:45:48;;;;;;;7.30;1.90;;;;;;;;;;5050726;28;20044;-69
2023/07/05 06:48:13;;;;;;;5.05;1.70;;;;;;;;;;5052475;28;20041;-69
2023/07/05 06:50:39;;;;;;;15.30;1.58;;;;;;;;;;5054520;28;20049;-69
2023/07/05 06:53:04;;;;;;;3.17;1.70;;;;;;;;;;5054306;28;20051;-69
2023/07/05 06:55:29;;;;;;;3.80;1.50;;;;;;;;;;5053719;28;20384;-69
2023/07/05 06:57:55;;;;;;;7.43;1.40;;;;;;;;;;5054756;28;20130;-69
2023/07/05 07:00:20;;;;;;;3.17;1.75;;;;;;;;;;5054621;28;20453;-69
2023/07/05 07:02:45;;;;;;;3.22;1.63;;;;;;;;;;5054235;28;20127;-69
2023/07/05 07:05:11;;;;;;;2.90;1.58;;;;;;;;;;5054325;28;20048;-69
2023/07/05 07:07:36;;;;;;;4.50;1.65;;;;;;;;;;5054238;28;20036;-70
2023/07/05 07:10:02;;;;;;;7.22;1.50;;;;;;;;;;5050311;28;20465;-69
2023/07/05 07:12:28;;;;;;;3.97;1.55;;;;;;;;;;5054271;28;20123;-70
2023/07/05 07:14:54;;;;;;;3.13;1.33;;;;;;;;;;5053918;28;20128;-70
2023/07/05 07:17:19;;;;;;;2.45;1.40;;;;;;;;;;5050072;28;20037;-71
2023/07/05 07:19:44;;;;;;;4.70;1.63;;;;;;;;;;5054122;28;20091;-70
2023/07/05 07:22:10;;;;;;;3.63;1.42;;;;;;;;;;5054035;28;20460;-69
2023/07/05 07:24:37;;;;;;;2.60;1.33;;;;;;;;;;5053844;28;20037;-68
2023/07/05 07:27:03;;;;;;;4.47;1.30;;;;;;;;;;5053922;28;20149;-71
2023/07/05 07:29:28;;;;;;;3.63;1.30;;;;;;;;;;5048436;28;20178;-71
2023/07/05 07:31:54;;;;;;;5.40;1.58;;;;;;;;;;5061117;28;20052;-71
2023/07/05 07:34:19;;;;;;;5.10;1.48;;;;;;;;;;5054744;28;20061;-71
2023/07/05 07:36:45;;;;;;;3.10;1.10;;;;;;;;;;5052850;28;20032;-71
2023/07/05 07:39:10;;;;;;;3.65;1.58;;;;;;;;;;5049345;28;20048;-71
2023/07/05 07:41:37;;;;;;;2.35;1.27;;;;;;;;;;5051392;28;20094;-71
2023/07/05 07:44:05;;;;;;;4.40;1.38;;;;;;;;;;5050730;28;20495;-71
2023/07/05 07:46:31;;;;;;;3.08;1.40;;;;;;;;;;5051124;28;20423;-70
2023/07/05 07:48:58;;;;;;;4.00;1.45;;;;;;;;;;5051614;28;20112;-71
2023/07/05 07:51:27;;;;;;;2.30;1.10;;;;;;;;;;5051520;28;20040;-69
2023/07/05 07:53:53;;;;;;;2.88;1.20;;;;;;;;;;5053412;28;20068;-69
2023/07/05 07:56:20;;;;;;;4.13;1.42;;;;;;;;;;5052364;28;20490;-70
2023/07/05 07:58:48;;;;;;;2.97;1.30;;;;;;;;;;5043770;28;20380;-71
2023/07/05 08:01:14;;;;;;;4.65;1.42;;;;;;;;;;5045904;28;20049;-71
2023/07/05 08:03:40;;;;;;;8.68;1.70;;;;;;;;;;5049430;28;20142;-70
2023/07/05 08:06:06;;;;;;;6.00;1.13;;;;;;;;;;5049568;28;20064;-71
2023/07/05 08:08:32;;;;;;;3.28;1.30;;;;;;;;;;5048449;28;20076;-70
2023/07/05 08:10:58;;;;;;;3.15;1.20;;;;;;;;;;5049485;28;20547;-70
2023/07/05 08:13:23;;;;;;;2.85;1.20;;;;;;;;;;5050111;28;20067;-70
2023/07/05 08:15:48;;;;;;;4.45;1.42;;;;;;;;;;5049410;28;20122;-71
2023/07/05 08:18:14;;;;;;;3.90;1.20;;;;;;;;;;5048248;28;20040;-71
2023/07/05 08:20:39;;;;;;;3.55;1.35;;;;;;;;;;5047119;28;20033;-70
2023/07/05 08:23:05;;;;;;;6.25;1.23;;;;;;;;;;5049276;28;20036;-70
2023/07/05 08:25:33;;;;;;;4.13;1.40;;;;;;;;;;5049421;28;20060;-70
2023/07/05 08:27:59;;;;;;;2.42;1.20;;;;;;;;;;5048575;28;20033;-71
2023/07/05 08:30:26;;;;;;;4.40;1.02;;;;;;;;;;5047701;28;20041;-70
2023/07/05 08:32:51;;;;;;;3.22;1.10;;;;;;;;;;5044652;28;20037;-71
2023/07/05 08:35:17;;;;;;;3.35;1.27;;;;;;;;;;5034089;28;20055;-70
2023/07/05 08:37:48;;;;;;;3.40;1.30;;;;;;;;;;5048329;28;20041;-70
2023/07/05 08:40:14;;;;;;;3.67;1.10;;;;;;;;;;5047777;28;20071;-71
2023/07/05 08:43:11;;;;;;;3.55;1.17;;;;;;;;;;5045930;28;20032;-71
2023/07/05 08:45:42;;;;;;;3.95;1.27;;;;;;;;;;5042627;28;20045;-69
2023/07/05 08:48:08;;;;;;;2.60;1.00;;;;;;;;;;5050802;28;20021;-69
2023/07/05 08:50:40;;;;;;;6.00;1.10;;;;;;;;;;5050407;28;20033;-69
2023/07/05 08:53:15;;;;;;;3.20;1.00;;;;;;;;;;5050871;28;20412;-69
2023/07/05 08:56:09;;;;;;;5.30;1.30;;;;;;;;;;5048522;28;20105;-69
2023/07/05 08:58:34;;;;;;;4.60;1.10;;;;;;;;;;5047106;28;20010;-69
2023/07/05 09:01:01;;;;;;;;;;;;;;;;;;5051239;28;20109;-69
2023/07/05 09:03:30;;;;;;;;;;;;;;;;;;5050082;28;25064;-69
2023/07/05 09:06:01;;;;;;;;;;;;;;;;;;5035474;28;20476;-69
2023/07/05 09:08:52;;;;;;;2.00;0.90;;;;;;;;;;5046181;28;20059;-70
2023/07/05 09:11:25;;;;;;;;;;;;;;;;;;5041275;28;20065;-69
2023/07/05 09:14:12;;;;;;;3.53;1.13;;;;;;;;;;5046163;28;20093;-69
2023/07/05 09:16:43;;;;;;;6.63;1.10;;;;;;;;;;5048794;28;20182;-69
2023/07/05 09:19:18;;;;;;;4.20;1.00;;;;;;;;;;5047457;28;20041;-69
2023/07/05 09:21:46;;;;;;;;;;;;;;;;;;5046537;28;19924;-69
2023/07/05 09:24:11;;;;;;;;;;;;;;;;;;5045739;28;24179;-69
2023/07/05 09:26:40;;;;;;;3.60;1.00;;;;;;;;;;5047618;28;19916;-69
2023/07/05 09:29:18;;;;;;;2.05;1.00;;;;;;;;;;5047448;28;20048;-69
2023/07/05 09:31:45;;;;;;;2.38;0.90;;;;;;;;;;5041335;28;20052;-69
2023/07/05 09:34:23;;;;;;;4.68;1.08;;;;;;;;;;5048726;28;20048;-69
2023/07/05 09:36:49;;;;;;;2.10;1.00;;;;;;;;;;5047825;28;20045;-69
2023/07/05 09:39:30;;;;;;;2.45;1.02;;;;;;;;;;5052058;28;20037;-71
2023/07/05 09:41:58;;;;;;;2.50;1.10;;;;;;;;;;5051282;28;20040;-69
2023/07/05 09:44:24;;;;;;;2.80;1.15;;;;;;;;;;5051185;28;20400;-69
2023/07/05 09:46:49;;;;;;;1.73;1.00;;;;;;;;;;5052406;28;20036;-69
2023/07/05 09:49:16;;;;;;;2.72;1.10;;;;;;;;;;5034476;28;20037;-69
2023/07/05 09:51:44;;;;;;;3.75;1.00;;;;;;;;;;5050963;28;20047;-69
2023/07/05 09:54:24;;;;;;;3.80;0.90;;;;;;;;;;5051188;28;20044;-69
2023/07/05 09:57:09;;;;;;;3.30;0.65;;;;;;;;;;5050783;28;20068;-69
2023/07/05 09:59:36;;;;;;;1.75;0.88;;;;;;;;;;5051469;28;20060;-71
2023/07/05 10:02:12;;;;;;;4.07;0.85;;;;;;;;;;5052483;28;20171;-69
2023/07/05 10:04:44;;;;;;;3.28;0.90;;;;;;;;;;5048828;28;20121;-71
2023/07/05 10:07:14;;;;;;;2.13;0.95;;;;;;;;;;5051482;28;20488;-71
2023/07/05 10:10:13;;;;;;;3.15;0.70;;;;;;;;;;5051755;28;20056;-70
2023/07/05 10:12:40;;;;;;;3.65;0.75;;;;;;;;;;5047417;28;20033;-70
2023/07/05 10:15:21;;;;;;;2.33;0.95;;;;;;;;;;5044663;28;20040;-70
2023/07/05 10:17:47;;;;;;;2.50;0.70;;;;;;;;;;5044026;28;20037;-71
2023/07/05 10:20:17;;;;;;;1.92;0.80;;;;;;;;;;5045268;28;20048;-71
2023/07/05 10:22:42;;;;;;;1.73;0.70;;;;;;;;;;5051679;28;20119;-70
2023/07/05 10:25:20;;;;;;;4.13;0.85;;;;;;;;;;5049953;28;20211;-70
2023/07/05 10:27:48;;;;;;;1.70;0.90;;;;;;;;;;5050615;28;20041;-70
2023/07/05 10:30:19;;;;;;;2.50;0.90;;;;;;;;;;5050540;28;20505;-70
2023/07/05 10:32:49;;;;;;;3.08;0.75;;;;;;;;;;5046412;28;20882;-70
2023/07/05 10:35:26;;;;;;;1.33;0.65;;;;;;;;;;5047117;28;20037;-70
2023/07/05 10:37:52;;;;;;;5.82;0.90;;;;;;;;;;5049254;28;20083;-70
2023/07/05 10:40:19;;;;;;;3.20;0.80;;;;;;;;;;5047205;28;20073;-70
2023/07/05 10:42:49;;;;;;;1.92;0.80;;;;;;;;;;5050716;28;20044;-70
2023/07/05 10:45:17;;;;;;;2.50;0.80;;;;;;;;;;5049482;28;20029;-70
2023/07/05 10:47:45;;;;;;;1.30;0.75;;;;;;;;;;5050313;28;20079;-70
2023/07/05 10:50:11;;;;;;;3.40;0.90;;;;;;;;;;5049357;28;20033;-70
2023/07/05 10:52:38;;;;;;;2.45;1.00;;;;;;;;;;5050163;28;20036;-70
2023/07/05 10:55:14;;;;;;;3.25;0.80;;;;;;;;;;5074761;28;20041;-70
2023/07/05 10:57:47;;;;;;;1.67;0.75;;;;;;;;;;5079478;28;20045;-70
2023/07/05 11:00:19;;;;;;;3.22;0.85;;;;;;;;;;5050065;28;20135;-70
2023/07/05 11:02:48;;;;;;;2.92;0.80;;;;;;;;;;5050731;28;20040;-70
2023/07/05 11:05:26;;;;;;;1.48;0.70;;;;;;;;;;5049766;28;20078;-69
2023/07/05 11:07:55;;;;;;;2.38;1.00;;;;;;;;;;5049202;28;20321;-70
2023/07/05 11:10:21;;;;;;;4.03;0.90;;;;;;;;;;5051420;28;20094;-70
2023/07/05 11:12:47;;;;;;;3.00;1.00;;;;;;;;;;5046361;28;20037;-70
2023/07/05 11:15:18;;;;;;;2.22;1.00;;;;;;;;;;5052214;28;20477;-69
2023/07/05 11:17:44;;;;;;;2.10;1.00;;;;;;;;;;5052550;28;20037;-70
2023/07/05 11:20:34;;;;;;;3.47;0.98;;;;;;;;;;5052406;28;20041;-70
2023/07/05 11:22:59;;;;;;;2.28;0.90;;;;;;;;;;5053365;28;20552;-70
2023/07/05 11:25:58;;;;;;;3.53;0.90;;;;;;;;;;5053270;28;20108;-70
2023/07/05 11:28:39;;;;;;;2.67;0.90;;;;;;;;;;5052912;28;20049;-70
2023/07/05 11:31:06;;;;;;;2.75;1.00;;;;;;;;;;5053405;28;20142;-70
2023/07/05 11:33:32;;;;;;;2.58;0.80;;;;;;;;;;5053230;28;20049;-69
2023/07/05 11:36:00;;;;;;;2.40;0.90;;;;;;;;;;5053450;28;20056;-69
2023/07/05 11:38:35;;;;;;;3.42;1.00;;;;;;;;;;5053267;28;20076;-70
2023/07/05 11:41:01;;;;;;;2.38;0.90;;;;;;;;;;5053725;28;20089;-70
2023/07/05 11:43:36;;;;;;;2.50;1.00;;;;;;;;;;5051521;28;20032;-69
2023/07/05 11:46:02;;;;;;;2.42;1.05;;;;;;;;;;5029489;28;20115;-69
2023/07/05 11:48:39;;;;;;;3.53;1.17;;;;;;;;;;5034667;28;20099;-69
2023/07/05 11:51:10;;;;;;;4.88;1.20;;;;;;;;;;5051037;28;20036;-70
2023/07/05 11:53:36;;;;;;;3.55;1.00;;;;;;;;;;5042959;28;20534;-69
2023/07/05 11:56:02;;;;;;;2.42;1.23;;;;;;;;;;5048346;28;20036;-70
2023/07/05 11:58:30;;;;;;;2.17;0.90;;;;;;;;;;5047947;28;20135;-70
2023/07/05 12:00:58;;;;;;;3.45;1.05;;;;;;;;;;5046900;28;20041;-69
2023/07/05 12:03:28;;;;;;;3.10;1.10;;;;;;;;;;5046509;28;20028;-70
2023/07/05 12:06:02;;;;;;;2.38;1.02;;;;;;;;;;5047390;28;20036;-69
2023/07/05 12:08:40;;;;;;;2.95;1.10;;;;;;;;;;5047297;28;20041;-70
2023/07/05 12:11:07;;;;;;;3.22;0.90;;;;;;;;;;5047103;28;20033;-69
2023/07/05 12:13:34;;;;;;;2.28;1.10;;;;;;;;;;5042784;28;20049;-69
2023/07/05 12:16:14;;;;;;;2.90;1.10;;;;;;;;;;5080580;28;20062;-70
2023/07/05 12:18:41;;;;;;;2.35;0.80;;;;;;;;;;5035701;28;20037;-69
2023/07/05 12:21:06;;;;;;;3.67;0.80;;;;;;;;;;5051760;28;20039;-70
2023/07/05 12:23:34;;;;;;;2.65;0.80;;;;;;;;;;5049457;28;20036;-69
2023/07/05 12:26:03;;;;;;;2.78;1.10;;;;;;;;;;5049739;28;20055;-69
2023/07/05 12:28:31;;;;;;;2.10;1.00;;;;;;;;;;5043900;28;20034;-69
2023/07/05 12:30:58;;;;;;;3.95;1.20;;;;;;;;;;5082836;28;20389;-70
2023/07/05 12:33:27;;;;;;;3.05;0.70;;;;;;;;;;5050306;28;20033;-69
2023/07/05 12:36:09;;;;;;;3.63;0.93;;;;;;;;;;5051088;28;20494;-69
2023/07/05 12:38:36;;;;;;;1.80;0.80;;;;;;;;;;5049887;28;20083;-69
2023/07/05 12:41:01;;;;;;;4.60;1.02;;;;;;;;;;5071164;28;20042;-69
2023/07/05 12:43:28;;;;;;;2.45;1.00;;;;;;;;;;5043729;28;20029;-70
2023/07/05 12:46:05;;;;;;;3.10;1.20;;;;;;;;;;5047920;28;20032;-70
2023/07/05 12:48:30;;;;;;;2.05;0.90;;;;;;;;;;5049594;28;20068;-69
2023/07/05 12:51:19;;;;;;;3.05;0.82;;;;;;;;;;5049820;28;20087;-70
2023/07/05 12:53:49;;;;;;;3.55;0.90;;;;;;;;;;5048808;28;20087;-69
2023/07/05 12:56:17;;;;;;;3.35;1.20;;;;;;;;;;5044908;28;20037;-69
2023/07/05 12:58:53;;;;;;;3.28;1.10;;;;;;;;;;5046646;28;20041;-70
2023/07/05 13:01:22;;;;;;;1.98;1.10;;;;;;;;;;5043522;28;20053;-70
2023/07/05 13:03:48;;;;;;;4.35;1.00;;;;;;;;;;5043212;28;20040;-70
2023/07/05 13:06:14;;;;;;;2.70;0.88;;;;;;;;;;5045869;28;20033;-69
2023/07/05 13:08:47;;;;;;;2.00;1.10;;;;;;;;;;5049762;28;20045;-69
2023/07/05 13:11:18;;;;;;;3.28;1.05;;;;;;;;;;5047640;28;20094;-69
2023/07/05 13:13:43;;;;;;;3.67;1.10;;;;;;;;;;5053863;28;20488;-69
2023/07/05 13:16:20;;;;;;;1.63;0.85;;;;;;;;;;5054110;28;20048;-69
2023/07/05 13:19:02;;;;;;;2.80;1.20;;;;;;;;;;5049971;28;20396;-69
2023/07/05 13:21:40;;;;;;;4.70;1.30;;;;;;;;;;5054304;28;20459;-69
2023/07/05 13:24:15;;;;;;;2.92;1.13;;;;;;;;;;5052529;28;20140;-69
2023/07/05 13:26:41;;;;;;;1.77;0.90;;;;;;;;;;5052013;28;20051;-69
2023/07/05 13:29:25;;;;;;;2.47;1.10;;;;;;;;;;5051465;28;20116;-69
2023/07/05 13:31:52;;;;;;;2.05;0.93;;;;;;;;;;5047102;28;20106;-69
2023/07/05 13:34:17;;;;;;;2.45;1.00;;;;;;;;;;5053820;28;20040;-69
2023/07/05 13:36:44;;;;;;;2.22;0.98;;;;;;;;;;5053553;28;20033;-69
2023/07/05 13:39:14;;;;;;;5.97;1.00;;;;;;;;;;5048984;28;20055;-69
2023/07/05 13:41:40;;;;;;;3.67;1.10;;;;;;;;;;5051819;28;20459;-69
2023/07/05 13:44:13;;;;;;;2.20;1.10;;;;;;;;;;5054419;28;20115;-69
2023/07/05 13:46:39;;;;;;;4.35;1.63;;;;;;;;;;5052319;28;20045;-69
2023/07/05 13:49:05;;;;;;;2.80;1.33;;;;;;;;;;5053204;28;20040;-69
2023/07/05 13:51:32;;;;;;;5.50;1.27;;;;;;;;;;5052660;28;20068;-69
2023/07/05 13:53:58;;;;;;;3.47;1.23;;;;;;;;;;5050626;28;20126;-69
2023/07/05 13:56:24;;;;;;;3.70;1.60;;;;;;;;;;5053601;28;20517;-69
2023/07/05 13:58:49;;;;;;;5.85;1.48;;;;;;;;;;5051756;28;20147;-69
2023/07/05 14:01:16;;;;;;;5.13;1.10;;;;;;;;;;5052978;28;20044;-69
2023/07/05 14:03:47;;;;;;;4.88;1.40;;;;;;;;;;5077526;28;20040;-69
2023/07/05 14:06:17;;;;;;;5.35;1.35;;;;;;;;;;5052573;28;20120;-69
2023/07/05 14:08:43;;;;;;;2.85;1.30;;;;;;;;;;5051356;28;20052;-69
2023/07/05 14:11:23;;;;;;;4.95;1.25;;;;;;;;;;5053290;28;20381;-70
2023/07/05 14:13:49;;;;;;;6.80;1.05;;;;;;;;;;5051004;28;20086;-69
2023/07/05 14:16:16;;;;;;;3.67;1.30;;;;;;;;;;5053389;28;20119;-69
2023/07/05 14:18:42;;;;;;;5.75;1.10;;;;;;;;;;5050655;28;20081;-69
2023/07/05 14:21:32;;;;;;;3.88;1.35;;;;;;;;;;5053647;28;20033;-69
2023/07/05 14:23:59;;;;;;;2.42;1.10;;;;;;;;;;5050174;28;20043;-69
2023/07/05 14:26:25;;;;;;;2.47;1.20;;;;;;;;;;5051673;28;20382;-69
2023/07/05 14:28:52;;;;;;;2.15;0.98;;;;;;;;;;5053330;28;20090;-69
2023/07/05 14:31:17;;;;;;;3.25;1.30;;;;;;;;;;5051718;28;20412;-69
2023/07/05 14:33:43;;;;;;;2.65;1.00;;;;;;;;;;5052290;28;20048;-69
2023/07/05 14:36:12;;;;;;;3.15;1.00;;;;;;;;;;5053446;28;20036;-69
2023/07/05 14:38:38;;;;;;;4.38;1.25;;;;;;;;;;5052529;28;20078;-69
2023/07/05 14:41:04;;;;;;;8.70;1.50;;;;;;;;;;5052790;28;20423;-69
2023/07/05 14:43:30;;;;;;;3.83;1.20;;;;;;;;;;5052394;28;20033;-69
2023/07/05 14:45:56;;;;;;;4.88;1.48;;;;;;;;;;5050316;28;20047;-69
2023/07/05 14:48:21;;;;;;;4.43;1.00;;;;;;;;;;5050936;28;20049;-69
2023/07/05 14:50:47;;;;;;;4.55;1.58;;;;;;;;;;5044648;28;20040;-69
2023/07/05 14:53:16;;;;;;;3.88;1.40;;;;;;;;;;5051411;28;20425;-69